sensor_id;sensor_type;location;lat;lon;timestamp;pressure;altitude;pressure_sealevel;temperature;humidity
31337;BME280;22846;42.654;23.314;2023-04-05T00:02:25;93985.81;;;23.19;55.05
31337;BME280;22846;42.654;23.314;2023-04-05T00:04:54;93984.28;;;23.18;54.98
31337;BME280;22846;42.654;23.314;2023-04-05T00:07:21;93978.06;;;23.17;55.06
31337;BME280;22846;42.654;23.314;2023-04-05T00:09:48;93976.53;;;23.16;54.88
31337;BME280;22846;42.654;23.314;2023-04-05T00:12:14;93985.94;;;23.15;55.28
31337;BME280;22846;42.654;23.314;2023-04-05T00:14:40;93989.75;;;23.18;55.27
31337;BME280;22846;42.654;23.314;2023-04-05T00:17:05;93977.78;;;23.15;55.16
31337;BME280;22846;42.654;23.314;2023-04-05T00:19:31;93979.25;;;23.16;55.32
31337;BME280;22846;42.654;23.314;2023-04-05T00:21:58;93971.22;;;23.13;54.91
31337;BME280;22846;42.654;23.314;2023-04-05T00:24:24;93951.09;;;22.98;55.28
31337;BME280;22846;42.654;23.314;2023-04-05T00:26:49;93954.47;;;23.02;55.13
31337;BME280;22846;42.654;23.314;2023-04-05T00:29:15;93976.66;;;23.13;55.21
31337;BME280;22846;42.654;23.314;2023-04-05T00:31:40;93976.47;;;23.08;55.28
31337;BME280;22846;42.654;23.314;2023-04-05T00:34:06;93985.63;;;23.13;55.27
31337;BME280;22846;42.654;23.314;2023-04-05T00:36:33;93991.50;;;23.12;55.36
31337;BME280;22846;42.654;23.314;2023-04-05T00:38:59;93963.53;;;22.99;55.32
31337;BME280;22846;42.654;23.314;2023-04-05T00:41:24;93989.22;;;23.10;54.83
31337;BME280;22846;42.654;23.314;2023-04-05T00:43:50;93973.22;;;23.00;55.20
31337;BME280;22846;42.654;23.314;2023-04-05T00:46:16;93995.44;;;23.11;54.96
31337;BME280;22846;42.654;23.314;2023-04-05T00:48:41;93971.38;;;22.97;54.88
31337;BME280;22846;42.654;23.314;2023-04-05T00:51:09;93985.44;;;23.08;55.33
31337;BME280;22846;42.654;23.314;2023-04-05T00:53:36;93983.44;;;23.08;54.92
31337;BME280;22846;42.654;23.314;2023-04-05T00:56:02;93995.56;;;23.08;55.19
31337;BME280;22846;42.654;23.314;2023-04-05T00:58:28;93998.28;;;23.08;55.01
31337;BME280;22846;42.654;23.314;2023-04-05T01:01:07;93989.47;;;23.04;55.37
31337;BME280;22846;42.654;23.314;2023-04-05T01:03:40;93998.41;;;23.04;54.85
31337;BME280;22846;42.654;23.314;2023-04-05T01:06:27;93999.94;;;23.05;55.08
31337;BME280;22846;42.654;23.314;2023-04-05T01:09:10;94001.13;;;23.04;55.41
31337;BME280;22846;42.654;23.314;2023-04-05T01:11:39;93994.94;;;23.04;54.94
31337;BME280;22846;42.654;23.314;2023-04-05T01:14:05;93979.38;;;22.92;55.24
31337;BME280;22846;42.654;23.314;2023-04-05T01:16:30;94003.09;;;23.04;55.03
31337;BME280;22846;42.654;23.314;2023-04-05T01:18:56;93988.94;;;22.96;55.18
31337;BME280;22846;42.654;23.314;2023-04-05T01:24:28;94001.56;;;23.03;55.17
31337;BME280;22846;42.654;23.314;2023-04-05T01:27:03;94002.75;;;23.02;54.88
31337;BME280;22846;42.654;23.314;2023-04-05T01:29:37;94002.75;;;23.02;55.00
31337;BME280;22846;42.654;23.314;2023-04-05T01:32:21;94001.69;;;22.99;54.86
31337;BME280;22846;42.654;23.314;2023-04-05T01:37:26;93980.81;;;22.84;55.08
31337;BME280;22846;42.654;23.314;2023-04-05T01:39:54;93991.38;;;22.94;54.84
31337;BME280;22846;42.654;23.314;2023-04-05T01:42:22;93981.34;;;22.91;55.31
31337;BME280;22846;42.654;23.314;2023-04-05T01:44:50;93993.50;;;22.99;55.10
31337;BME280;22846;42.654;23.314;2023-04-05T01:47:15;93970.03;;;22.80;54.82
31337;BME280;22846;42.654;23.314;2023-04-05T01:49:40;93998.63;;;22.97;54.79
31337;BME280;22846;42.654;23.314;2023-04-05T01:52:06;93990.59;;;22.94;54.71
31337;BME280;22846;42.654;23.314;2023-04-05T01:54:31;93988.72;;;22.91;54.84
31337;BME280;22846;42.654;23.314;2023-04-05T01:56:56;93990.91;;;22.96;54.95
31337;BME280;22846;42.654;23.314;2023-04-05T01:59:23;93995.59;;;22.95;54.72
31337;BME280;22846;42.654;23.314;2023-04-05T02:01:48;93996.34;;;22.96;54.70
31337;BME280;22846;42.654;23.314;2023-04-05T02:04:13;93991.38;;;22.94;54.80
31337;BME280;22846;42.654;23.314;2023-04-05T02:06:39;93996.81;;;22.94;55.00
31337;BME280;22846;42.654;23.314;2023-04-05T02:09:05;93998.44;;;22.92;55.09
31337;BME280;22846;42.654;23.314;2023-04-05T02:11:30;94005.41;;;22.93;54.75
31337;BME280;22846;42.654;23.314;2023-04-05T02:13:56;93999.63;;;22.91;54.78
31337;BME280;22846;42.654;23.314;2023-04-05T02:16:21;93999.97;;;22.93;55.12
31337;BME280;22846;42.654;23.314;2023-04-05T02:18:47;93999.63;;;22.91;54.79
31337;BME280;22846;42.654;23.314;2023-04-05T02:21:15;94001.94;;;22.92;54.81
31337;BME280;22846;42.654;23.314;2023-04-05T02:23:40;93999.22;;;22.92;55.14
31337;BME280;22846;42.654;23.314;2023-04-05T02:26:06;93999.75;;;22.87;54.89
31337;BME280;22846;42.654;23.314;2023-04-05T02:28:31;94007.50;;;22.89;54.95
31337;BME280;22846;42.654;23.314;2023-04-05T02:30:57;94005.53;;;22.89;55.15
31337;BME280;22846;42.654;23.314;2023-04-05T02:33:22;94004.34;;;22.90;55.02
31337;BME280;22846;42.654;23.314;2023-04-05T02:35:52;94008.25;;;22.89;54.69
31337;BME280;22846;42.654;23.314;2023-04-05T02:38:17;94002.81;;;22.89;54.85
31337;BME280;22846;42.654;23.314;2023-04-05T02:40:48;94007.19;;;22.87;55.01
31337;BME280;22846;42.654;23.314;2023-04-05T02:43:13;94004.91;;;22.85;54.88
31337;BME280;22846;42.654;23.314;2023-04-05T02:45:38;94004.00;;;22.88;54.46
31337;BME280;22846;42.654;23.314;2023-04-05T02:48:04;93991.72;;;22.84;54.69
31337;BME280;22846;42.654;23.314;2023-04-05T02:50:29;93994.88;;;22.82;54.90
31337;BME280;22846;42.654;23.314;2023-04-05T02:52:57;93995.22;;;22.84;54.62
31337;BME280;22846;42.654;23.314;2023-04-05T02:55:22;93994.00;;;22.85;54.77
31337;BME280;22846;42.654;23.314;2023-04-05T02:57:48;93992.50;;;22.84;54.61
31337;BME280;22846;42.654;23.314;2023-04-05T03:00:13;93990.63;;;22.81;54.67
31337;BME280;22846;42.654;23.314;2023-04-05T03:02:39;93999.13;;;22.83;54.95
31337;BME280;22846;42.654;23.314;2023-04-05T03:05:05;94001.84;;;22.83;55.34
31337;BME280;22846;42.654;23.314;2023-04-05T03:07:32;93960.06;;;22.65;54.73
31337;BME280;22846;42.654;23.314;2023-04-05T03:09:57;94004.63;;;23.05;53.92
31337;BME280;22846;42.654;23.314;2023-04-05T03:12:23;93996.06;;;23.15;53.44
31337;BME280;22846;42.654;23.314;2023-04-05T03:14:49;93990.75;;;23.33;53.68
31337;BME280;22846;42.654;23.314;2023-04-05T03:17:14;93977.28;;;23.38;53.40
31337;BME280;22846;42.654;23.314;2023-04-05T03:19:39;93991.97;;;23.62;52.86
31337;BME280;22846;42.654;23.314;2023-04-05T03:22:05;93973.66;;;23.63;52.74
31337;BME280;22846;42.654;23.314;2023-04-05T03:24:31;93996.50;;;23.87;52.57
31337;BME280;22846;42.654;23.314;2023-04-05T03:27:00;93986.97;;;23.91;52.14
31337;BME280;22846;42.654;23.314;2023-04-05T03:29:26;93992.16;;;23.98;51.86
31337;BME280;22846;42.654;23.314;2023-04-05T03:31:52;93987.94;;;24.06;52.15
31337;BME280;22846;42.654;23.314;2023-04-05T03:34:17;93994.50;;;24.17;51.79
31337;BME280;22846;42.654;23.314;2023-04-05T03:36:43;93988.00;;;24.24;51.56
31337;BME280;22846;42.654;23.314;2023-04-05T03:39:09;93985.25;;;24.24;51.31
31337;BME280;22846;42.654;23.314;2023-04-05T03:41:35;93994.69;;;24.32;51.31
31337;BME280;22846;42.654;23.314;2023-04-05T03:44:01;93997.91;;;24.39;51.12
31337;BME280;22846;42.654;23.314;2023-04-05T03:46:26;94008.88;;;24.48;51.05
31337;BME280;22846;42.654;23.314;2023-04-05T03:48:51;94004.34;;;24.54;51.23
31337;BME280;22846;42.654;23.314;2023-04-05T03:51:17;94009.97;;;24.60;50.96
31337;BME280;22846;42.654;23.314;2023-04-05T03:53:43;94012.53;;;24.63;50.80
31337;BME280;22846;42.654;23.314;2023-04-05T03:56:09;94011.19;;;24.68;50.26
31337;BME280;22846;42.654;23.314;2023-04-05T03:58:35;94008.91;;;24.66;47.71
31337;BME280;22846;42.654;23.314;2023-04-05T04:01:01;94008.91;;;24.66;48.49
31337;BME280;22846;42.654;23.314;2023-04-05T04:03:26;94016.19;;;24.69;49.47
31337;BME280;22846;42.654;23.314;2023-04-05T04:05:53;94012.41;;;24.67;50.13
31337;BME280;22846;42.654;23.314;2023-04-05T04:08:19;94021.34;;;24.76;50.73
31337;BME280;22846;42.654;23.314;2023-04-05T04:10:45;94027.75;;;24.82;50.85
31337;BME280;22846;42.654;23.314;2023-04-05T04:13:10;94016.22;;;24.87;50.75
31337;BME280;22846;42.654;23.314;2023-04-05T04:15:36;94014.38;;;24.93;51.71
31337;BME280;22846;42.654;23.314;2023-04-05T04:18:01;94016.69;;;24.94;51.51
31337;BME280;22846;42.654;23.314;2023-04-05T04:20:26;94022.16;;;24.94;51.36
31337;BME280;22846;42.654;23.314;2023-04-05T04:22:52;94017.44;;;24.95;51.45
31337;BME280;22846;42.654;23.314;2023-04-05T04:25:18;94021.09;;;24.92;51.25
31337;BME280;22846;42.654;23.314;2023-04-05T04:27:44;93990.84;;;24.69;50.93
31337;BME280;22846;42.654;23.314;2023-04-05T04:30:14;94027.00;;;24.90;50.80
31337;BME280;22846;42.654;23.314;2023-04-05T04:32:41;94023.19;;;24.88;50.49
31337;BME280;22846;42.654;23.314;2023-04-05T04:35:32;94027.75;;;24.91;50.69
31337;BME280;22846;42.654;23.314;2023-04-05T04:38:06;94028.97;;;24.90;50.73
31337;BME280;22846;42.654;23.314;2023-04-05T04:40:37;94038.06;;;24.87;50.52
31337;BME280;22846;42.654;23.314;2023-04-05T04:43:09;94032.75;;;24.83;50.94
31337;BME280;22846;42.654;23.314;2023-04-05T04:45:39;94032.59;;;24.78;47.49
31337;BME280;22846;42.654;23.314;2023-04-05T04:48:05;94030.47;;;24.73;49.63
31337;BME280;22846;42.654;23.314;2023-04-05T04:50:32;94032.72;;;24.66;50.15
31337;BME280;22846;42.654;23.314;2023-04-05T04:52:59;94011.63;;;24.48;50.97
31337;BME280;22846;42.654;23.314;2023-04-05T04:55:24;94015.25;;;24.45;51.44
31337;BME280;22846;42.654;23.314;2023-04-05T04:57:52;94037.56;;;24.44;52.06
31337;BME280;22846;42.654;23.314;2023-04-05T05:00:18;94039.91;;;24.33;52.13
31337;BME280;22846;42.654;23.314;2023-04-05T05:02:44;94020.59;;;24.18;52.04
31337;BME280;22846;42.654;23.314;2023-04-05T05:05:10;94028.63;;;24.22;51.94
31337;BME280;22846;42.654;23.314;2023-04-05T05:07:36;94027.72;;;24.16;52.57
31337;BME280;22846;42.654;23.314;2023-04-05T05:10:02;94042.13;;;24.16;52.74
31337;BME280;22846;42.654;23.314;2023-04-05T05:12:28;94034.06;;;24.13;52.03
31337;BME280;22846;42.654;23.314;2023-04-05T05:14:55;94030.56;;;24.03;52.54
31337;BME280;22846;42.654;23.314;2023-04-05T05:17:21;94049.19;;;24.05;52.69
31337;BME280;22846;42.654;23.314;2023-04-05T05:19:47;94027.75;;;23.86;49.16
31337;BME280;22846;42.654;23.314;2023-04-05T05:22:13;94045.69;;;23.95;50.52
31337;BME280;22846;42.654;23.314;2023-04-05T05:24:38;94059.00;;;23.93;51.87
31337;BME280;22846;42.654;23.314;2023-04-05T05:27:04;94032.56;;;23.82;52.34
31337;BME280;22846;42.654;23.314;2023-04-05T05:29:29;94047.16;;;23.88;52.57
31337;BME280;22846;42.654;23.314;2023-04-05T05:31:54;94044.25;;;23.82;52.90
31337;BME280;22846;42.654;23.314;2023-04-05T05:34:20;94040.13;;;23.78;52.52
31337;BME280;22846;42.654;23.314;2023-04-05T05:36:46;94045.13;;;23.79;51.69
31337;BME280;22846;42.654;23.314;2023-04-05T05:39:11;94040.25;;;23.74;51.93
31337;BME280;22846;42.654;23.314;2023-04-05T05:41:37;94037.31;;;23.69;52.99
31337;BME280;22846;42.654;23.314;2023-04-05T05:44:02;94048.09;;;23.72;52.22
31337;BME280;22846;42.654;23.314;2023-04-05T05:46:28;94021.66;;;23.60;52.69
31337;BME280;22846;42.654;23.314;2023-04-05T05:48:53;94037.00;;;23.67;53.12
31337;BME280;22846;42.654;23.314;2023-04-05T05:51:18;94032.75;;;23.66;52.97
31337;BME280;22846;42.654;23.314;2023-04-05T05:53:44;94024.09;;;23.58;52.88
31337;BME280;22846;42.654;23.314;2023-04-05T05:56:09;94043.34;;;23.64;49.07
31337;BME280;22846;42.654;23.314;2023-04-05T05:58:36;94021.66;;;23.60;49.76
31337;BME280;22846;42.654;23.314;2023-04-05T06:01:01;94001.91;;;23.47;50.86
31337;BME280;22846;42.654;23.314;2023-04-05T06:03:28;94025.56;;;23.59;51.28
31337;BME280;22846;42.654;23.314;2023-04-05T06:05:55;94043.19;;;23.58;51.78
31337;BME280;22846;42.654;23.314;2023-04-05T06:08:22;94044.38;;;23.57;52.02
31337;BME280;22846;42.654;23.314;2023-04-05T06:10:48;94039.69;;;23.58;52.24
31337;BME280;22846;42.654;23.314;2023-04-05T06:13:14;94048.75;;;23.55;51.92
31337;BME280;22846;42.654;23.314;2023-04-05T06:15:41;94044.94;;;23.52;51.78
31337;BME280;22846;42.654;23.314;2023-04-05T06:18:07;94054.22;;;23.55;52.33
31337;BME280;22846;42.654;23.314;2023-04-05T06:20:33;94049.19;;;23.53;52.58
31337;BME280;22846;42.654;23.314;2023-04-05T06:22:58;94050.38;;;23.52;52.38
31337;BME280;22846;42.654;23.314;2023-04-05T06:25:23;94055.56;;;23.50;52.64
31337;BME280;22846;42.654;23.314;2023-04-05T06:27:49;94052.03;;;23.50;52.27
31337;BME280;22846;42.654;23.314;2023-04-05T06:30:14;94040.94;;;23.44;52.56
31337;BME280;22846;42.654;23.314;2023-04-05T06:32:40;94050.19;;;23.47;52.61
31337;BME280;22846;42.654;23.314;2023-04-05T06:35:06;94067.22;;;23.51;52.26
31337;BME280;22846;42.654;23.314;2023-04-05T06:37:31;94034.03;;;23.31;52.46
31337;BME280;22846;42.654;23.314;2023-04-05T06:39:58;94061.44;;;23.49;52.55
31337;BME280;22846;42.654;23.314;2023-04-05T06:42:23;94065.06;;;23.46;52.36
31337;BME280;22846;42.654;23.314;2023-04-05T06:44:49;94065.06;;;23.46;52.40
31337;BME280;22846;42.654;23.314;2023-04-05T06:47:15;94067.16;;;23.42;52.86
31337;BME280;22846;42.654;23.314;2023-04-05T06:49:40;94077.47;;;23.47;52.68
31337;BME280;22846;42.654;23.314;2023-04-05T06:52:06;94069.41;;;23.43;52.64
31337;BME280;22846;42.654;23.314;2023-04-05T06:54:32;94061.81;;;23.38;52.85
31337;BME280;22846;42.654;23.314;2023-04-05T06:56:57;94071.19;;;23.37;52.85
31337;BME280;22846;42.654;23.314;2023-04-05T06:59:23;94088.09;;;23.45;52.61
31337;BME280;22846;42.654;23.314;2023-04-05T07:01:48;94092.56;;;23.39;52.67
31337;BME280;22846;42.654;23.314;2023-04-05T07:04:14;94094.09;;;23.40;52.52
31337;BME280;22846;42.654;23.314;2023-04-05T07:06:39;94101.84;;;23.41;52.62
31337;BME280;22846;42.654;23.314;2023-04-05T07:09:05;94099.13;;;23.41;52.82
31337;BME280;22846;42.654;23.314;2023-04-05T07:11:31;94096.38;;;23.41;52.69
31337;BME280;22846;42.654;23.314;2023-04-05T07:14:00;94097.41;;;23.35;52.95
31337;BME280;22846;42.654;23.314;2023-04-05T07:16:26;94101.94;;;23.38;52.99
31337;BME280;22846;42.654;23.314;2023-04-05T07:18:51;94097.53;;;23.31;52.97
31337;BME280;22846;42.654;23.314;2023-04-05T07:21:17;94105.13;;;23.36;52.90
31337;BME280;22846;42.654;23.314;2023-04-05T07:23:42;94098.59;;;23.34;52.57
31337;BME280;22846;42.654;23.314;2023-04-05T07:26:07;94112.09;;;23.37;52.94
31337;BME280;22846;42.654;23.314;2023-04-05T07:28:33;94110.56;;;23.36;52.67
31337;BME280;22846;42.654;23.314;2023-04-05T07:31:03;94112.22;;;23.34;52.98
31337;BME280;22846;42.654;23.314;2023-04-05T07:33:29;94101.13;;;23.28;52.97
31337;BME280;22846;42.654;23.314;2023-04-05T07:35:55;94102.97;;;23.31;52.78
31337;BME280;22846;42.654;23.314;2023-04-05T07:38:24;94094.84;;;23.19;53.03
31337;BME280;22846;42.654;23.314;2023-04-05T07:40:50;94104.16;;;23.30;53.31
31337;BME280;22846;42.654;23.314;2023-04-05T07:43:17;94112.69;;;23.32;53.21
31337;BME280;22846;42.654;23.314;2023-04-05T07:45:43;94109.31;;;23.28;53.08
31337;BME280;22846;42.654;23.314;2023-04-05T07:48:08;94103.56;;;23.14;52.61
31337;BME280;22846;42.654;23.314;2023-04-05T07:50:34;94125.22;;;23.30;52.95
31337;BME280;22846;42.654;23.314;2023-04-05T07:53:00;94131.88;;;23.29;53.05
31337;BME280;22846;42.654;23.314;2023-04-05T07:55:26;94133.84;;;23.28;52.60
31337;BME280;22846;42.654;23.314;2023-04-05T07:57:52;94127.31;;;23.26;52.88
31337;BME280;22846;42.654;23.314;2023-04-05T08:00:18;94137.00;;;23.27;52.71
31337;BME280;22846;42.654;23.314;2023-04-05T08:02:44;94119.91;;;23.14;52.94
31337;BME280;22846;42.654;23.314;2023-04-05T08:05:10;94137.75;;;23.27;52.62
31337;BME280;22846;42.654;23.314;2023-04-05T08:07:35;94141.81;;;23.23;52.55
31337;BME280;22846;42.654;23.314;2023-04-05T08:10:01;94140.94;;;23.26;52.69
31337;BME280;22846;42.654;23.314;2023-04-05T08:12:27;94143.78;;;23.22;53.17
31337;BME280;22846;42.654;23.314;2023-04-05T08:14:54;94140.28;;;23.22;53.06
31337;BME280;22846;42.654;23.314;2023-04-05T08:17:19;94141.47;;;23.21;53.04
31337;BME280;22846;42.654;23.314;2023-04-05T08:19:44;94148.47;;;23.22;53.08
31337;BME280;22846;42.654;23.314;2023-04-05T08:22:10;94147.84;;;23.18;52.89
31337;BME280;22846;42.654;23.314;2023-04-05T08:24:35;94146.31;;;23.17;52.70
31337;BME280;22846;42.654;23.314;2023-04-05T08:27:01;94146.94;;;23.21;52.85
31337;BME280;22846;42.654;23.314;2023-04-05T08:29:26;94149.66;;;23.21;52.53
31337;BME280;22846;42.654;23.314;2023-04-05T08:31:55;94135.31;;;23.08;52.79
31337;BME280;22846;42.654;23.314;2023-04-05T08:34:21;94149.03;;;23.17;52.80
31337;BME280;22846;42.654;23.314;2023-04-05T08:36:47;94154.81;;;23.19;52.74
31337;BME280;22846;42.654;23.314;2023-04-05T08:39:12;94159.50;;;23.18;53.15
31337;BME280;22846;42.654;23.314;2023-04-05T08:41:40;94165.38;;;23.17;52.67
31337;BME280;22846;42.654;23.314;2023-04-05T08:44:10;94148.16;;;23.08;52.63
31337;BME280;22846;42.654;23.314;2023-04-05T08:46:37;94159.28;;;23.13;52.65
31337;BME280;22846;42.654;23.314;2023-04-05T08:49:06;94169.31;;;23.16;52.66
31337;BME280;22846;42.654;23.314;2023-04-05T08:51:32;94165.50;;;23.13;52.64
31337;BME280;22846;42.654;23.314;2023-04-05T08:53:58;94170.50;;;23.15;53.23
31337;BME280;22846;42.654;23.314;2023-04-05T08:56:26;94168.66;;;23.12;52.57
31337;BME280;22846;42.654;23.314;2023-04-05T08:59:02;94179.13;;;23.13;52.90
31337;BME280;22846;42.654;23.314;2023-04-05T09:01:29;94181.75;;;23.17;52.72
31337;BME280;22846;42.654;23.314;2023-04-05T09:03:57;94179.88;;;23.14;52.45
31337;BME280;22846;42.654;23.314;2023-04-05T09:06:24;94165.50;;;23.01;52.84
31337;BME280;22846;42.654;23.314;2023-04-05T09:08:52;94188.63;;;23.09;52.58
31337;BME280;22846;42.654;23.314;2023-04-05T09:11:19;94168.03;;;22.96;52.61
31337;BME280;22846;42.654;23.314;2023-04-05T09:13:44;94176.06;;;22.99;53.18
31337;BME280;22846;42.654;23.314;2023-04-05T09:16:10;94162.81;;;22.89;52.99
31337;BME280;22846;42.654;23.314;2023-04-05T09:18:35;94183.94;;;23.09;52.55
31337;BME280;22846;42.654;23.314;2023-04-05T09:21:03;94184.72;;;23.10;52.86
31337;BME280;22846;42.654;23.314;2023-04-05T09:23:29;94181.66;;;23.08;53.08
31337;BME280;22846;42.654;23.314;2023-04-05T09:25:54;94183.94;;;23.09;52.99
31337;BME280;22846;42.654;23.314;2023-04-05T09:28:20;94187.84;;;23.08;53.07
31337;BME280;22846;42.654;23.314;2023-04-05T09:30:45;94173.22;;;23.03;52.85
31337;BME280;22846;42.654;23.314;2023-04-05T09:33:14;94163.53;;;23.02;53.20
31337;BME280;22846;42.654;23.314;2023-04-05T09:35:43;94174.09;;;23.12;52.76
31337;BME280;22846;42.654;23.314;2023-04-05T09:38:08;94178.34;;;23.13;53.43
31337;BME280;22846;42.654;23.314;2023-04-05T09:40:42;94172.16;;;23.12;52.72
31337;BME280;22846;42.654;23.314;2023-04-05T09:43:09;94183.38;;;23.14;52.82
31337;BME280;22846;42.654;23.314;2023-04-05T09:45:41;94173.69;;;23.13;52.95
31337;BME280;22846;42.654;23.314;2023-04-05T09:48:07;94175.22;;;23.14;52.92
31337;BME280;22846;42.654;23.314;2023-04-05T09:50:34;94174.75;;;23.16;52.90
31337;BME280;22846;42.654;23.314;2023-04-05T09:53:12;94179.00;;;23.17;52.89
31337;BME280;22846;42.654;23.314;2023-04-05T09:55:43;94178.56;;;23.18;52.68
31337;BME280;22846;42.654;23.314;2023-04-05T09:58:17;94169.09;;;23.10;52.83
31337;BME280;22846;42.654;23.314;2023-04-05T10:00:49;94179.75;;;23.17;52.98
31337;BME280;22846;42.654;23.314;2023-04-05T10:03:19;94173.56;;;23.17;53.28
31337;BME280;22846;42.654;23.314;2023-04-05T10:05:45;94178.69;;;23.15;52.81
31337;BME280;22846;42.654;23.314;2023-04-05T10:08:12;94172.78;;;23.16;52.92
31337;BME280;22846;42.654;23.314;2023-04-05T10:10:45;94174.75;;;23.16;53.34
31337;BME280;22846;42.654;23.314;2023-04-05T10:13:12;94175.22;;;23.14;52.86
31337;BME280;22846;42.654;23.314;2023-04-05T10:15:39;94176.63;;;23.19;52.88
31337;BME280;22846;42.654;23.314;2023-04-05T10:18:09;94186.75;;;23.18;52.83
31337;BME280;22846;42.654;23.314;2023-04-05T10:20:42;94178.69;;;23.15;53.11
31337;BME280;22846;42.654;23.314;2023-04-05T10:23:30;94184.03;;;23.18;52.67
31337;BME280;22846;42.654;23.314;2023-04-05T10:26:19;94195.38;;;23.17;52.56
31337;BME280;22846;42.654;23.314;2023-04-05T10:28:55;94180.22;;;23.16;52.57
31337;BME280;22846;42.654;23.314;2023-04-05T10:32:17;94171.19;;;23.07;52.69
31337;BME280;22846;42.654;23.314;2023-04-05T10:34:26;94188.28;;;23.19;52.65
31337;BME280;22846;42.654;23.314;2023-04-05T10:39:25;94190.25;;;23.19;52.54
31337;BME280;22846;42.654;23.314;2023-04-05T10:41:59;94170.19;;;23.13;52.77
31337;BME280;22846;42.654;23.314;2023-04-05T10:44:26;94175.84;;;23.18;52.45
31337;BME280;22846;42.654;23.314;2023-04-05T10:46:53;94182.94;;;23.16;52.78
31337;BME280;22846;42.654;23.314;2023-04-05T10:51:54;94190.03;;;23.13;52.71
31337;BME280;22846;42.654;23.314;2023-04-05T10:54:21;94172.59;;;22.99;52.83
31337;BME280;22846;42.654;23.314;2023-04-05T10:56:47;94187.19;;;23.17;52.36
31337;BME280;22846;42.654;23.314;2023-04-05T10:59:13;94202.34;;;23.18;52.50
31337;BME280;22846;42.654;23.314;2023-04-05T11:01:40;94183.94;;;23.09;52.36
31337;BME280;22846;42.654;23.314;2023-04-05T11:04:13;94191.56;;;23.14;52.61
31337;BME280;22846;42.654;23.314;2023-04-05T11:06:39;94196.56;;;23.16;52.29
31337;BME280;22846;42.654;23.314;2023-04-05T11:09:15;94204.09;;;23.12;52.66
31337;BME280;22846;42.654;23.314;2023-04-05T11:11:42;94205.94;;;23.15;52.62
31337;BME280;22846;42.654;23.314;2023-04-05T11:14:25;94211.06;;;23.13;52.06
31337;BME280;22846;42.654;23.314;2023-04-05T11:16:59;94200.59;;;23.11;52.52
31337;BME280;22846;42.654;23.314;2023-04-05T11:19:47;94206.81;;;23.12;52.41
31337;BME280;22846;42.654;23.314;2023-04-05T11:22:23;94204.19;;;23.08;52.51
31337;BME280;22846;42.654;23.314;2023-04-05T11:24:54;94208.78;;;23.11;52.17
31337;BME280;22846;42.654;23.314;2023-04-05T11:29:55;94191.69;;;23.11;52.18
31337;BME280;22846;42.654;23.314;2023-04-05T11:32:22;94200.41;;;23.06;52.06
31337;BME280;22846;42.654;23.314;2023-04-05T11:34:59;94200.72;;;23.08;52.25
31337;BME280;22846;42.654;23.314;2023-04-05T11:40:36;94190.69;;;23.05;52.34
31337;BME280;22846;42.654;23.314;2023-04-05T11:45:32;94201.34;;;23.12;52.54
31337;BME280;22846;42.654;23.314;2023-04-05T11:50:31;94193.19;;;23.12;52.11
31337;BME280;22846;42.654;23.314;2023-04-05T11:55:39;94200.59;;;23.11;52.09
31337;BME280;22846;42.654;23.314;2023-04-05T11:58:25;94200.59;;;23.11;52.38
31337;BME280;22846;42.654;23.314;2023-04-05T12:01:00;94193.19;;;23.12;52.18
31337;BME280;22846;42.654;23.314;2023-04-05T12:03:26;94188.50;;;23.12;52.43
31337;BME280;22846;42.654;23.314;2023-04-05T12:05:57;94177.84;;;23.06;52.08
31337;BME280;22846;42.654;23.314;2023-04-05T12:08:38;94199.88;;;23.11;52.05
31337;BME280;22846;42.654;23.314;2023-04-05T12:11:09;94201.34;;;23.12;52.34
31337;BME280;22846;42.654;23.314;2023-04-05T12:13:36;94194.81;;;23.09;51.85
31337;BME280;22846;42.654;23.314;2023-04-05T12:16:07;94197.13;;;23.11;52.29
31337;BME280;22846;42.654;23.314;2023-04-05T12:18:36;94193.97;;;23.12;51.82
31337;BME280;22846;42.654;23.314;2023-04-05T12:21:11;94189.38;;;23.09;52.08
31337;BME280;22846;42.654;23.314;2023-04-05T12:23:37;94190.28;;;23.07;51.90
31337;BME280;22846;42.654;23.314;2023-04-05T12:26:03;94194.81;;;23.09;52.18
31337;BME280;22846;42.654;23.314;2023-04-05T12:28:56;94192.09;;;23.09;52.08
31337;BME280;22846;42.654;23.314;2023-04-05T12:31:38;94188.63;;;23.09;52.25
31337;BME280;22846;42.654;23.314;2023-04-05T12:34:04;94192.88;;;23.10;51.77
31337;BME280;22846;42.654;23.314;2023-04-05T12:36:30;94187.84;;;23.08;51.77
31337;BME280;22846;42.654;23.314;2023-04-05T12:38:59;94197.66;;;23.06;51.72
31337;BME280;22846;42.654;23.314;2023-04-05T12:41:31;94199.09;;;23.10;52.21
31337;BME280;22846;42.654;23.314;2023-04-05T12:43:57;94199.53;;;23.09;52.22
31337;BME280;22846;42.654;23.314;2023-04-05T12:46:43;94193.75;;;23.07;52.19
31337;BME280;22846;42.654;23.314;2023-04-05T12:49:10;94186.78;;;23.06;52.14
31337;BME280;22846;42.654;23.314;2023-04-05T12:54:13;94199.53;;;23.09;52.07
31337;BME280;22846;42.654;23.314;2023-04-05T12:56:39;94208.47;;;23.09;52.21
31337;BME280;22846;42.654;23.314;2023-04-05T12:59:05;94209.66;;;23.08;51.80
31337;BME280;22846;42.654;23.314;2023-04-05T13:01:34;94212.81;;;23.07;51.61
31337;BME280;22846;42.654;23.314;2023-04-05T13:04:00;94211.28;;;23.06;51.83
31337;BME280;22846;42.654;23.314;2023-04-05T13:06:26;94216.75;;;23.06;51.96
31337;BME280;22846;42.654;23.314;2023-04-05T13:08:52;94214.88;;;23.03;52.10
31337;BME280;22846;42.654;23.314;2023-04-05T13:11:17;94210.97;;;23.04;51.71
31337;BME280;22846;42.654;23.314;2023-04-05T13:13:43;94216.00;;;23.06;52.06
31337;BME280;22846;42.654;23.314;2023-04-05T13:16:08;94208.78;;;22.99;51.54
31337;BME280;22846;42.654;23.314;2023-04-05T13:18:33;94216.75;;;23.06;51.51
31337;BME280;22846;42.654;23.314;2023-04-05T13:20:59;94209.44;;;23.03;51.87